createdAt,value
2017-12-31T17:12:55.361Z,12.10
2017-12-31T17:15:23.582Z,14.30
2017-12-31T17:17:51.046Z,11.30
2017-12-31T17:20:18.932Z,10.97
2017-12-31T17:22:46.389Z,9.50
2017-12-31T17:25:13.846Z,8.60
2017-12-31T17:27:41.358Z,14.37
2017-12-31T17:30:08.822Z,13.00
2017-12-31T17:32:36.280Z,10.37
2017-12-31T17:35:03.754Z,11.30
2017-12-31T17:37:31.201Z,12.03
2017-12-31T17:39:58.662Z,11.17
2017-12-31T17:42:26.155Z,11.17
2017-12-31T17:44:54.389Z,11.17
2017-12-31T17:47:21.855Z,10.37
2017-12-31T17:49:49.392Z,12.87
2017-12-31T17:52:16.951Z,13.53
2017-12-31T17:54:44.404Z,11.43
2017-12-31T17:57:11.897Z,11.07
2017-12-31T17:59:39.354Z,11.57
2017-12-31T18:02:06.802Z,10.03
2017-12-31T18:04:34.882Z,11.13
2017-12-31T18:07:02.334Z,12.60
2017-12-31T18:09:29.785Z,10.27
2017-12-31T18:11:57.458Z,15.23
2017-12-31T18:14:24.923Z,15.63
2017-12-31T18:16:52.389Z,14.83
2017-12-31T18:19:19.857Z,14.67
2017-12-31T18:21:48.090Z,11.50
2017-12-31T18:24:15.594Z,18.30
2017-12-31T18:26:43.845Z,14.10
2017-12-31T18:29:11.301Z,12.60
2017-12-31T18:31:38.767Z,10.40
2017-12-31T18:34:06.654Z,11.40
2017-12-31T18:36:34.880Z,12.23
2017-12-31T18:39:02.338Z,12.43
2017-12-31T18:41:29.813Z,13.10
2017-12-31T18:43:58.781Z,15.17
2017-12-31T18:46:26.300Z,12.73
2017-12-31T18:48:53.726Z,13.50
2017-12-31T18:51:21.201Z,10.80
2017-12-31T18:53:49.433Z,10.90
2017-12-31T18:56:17.012Z,10.97
2017-12-31T18:58:44.527Z,14.20
2017-12-31T19:01:11.984Z,11.33
2017-12-31T19:03:39.786Z,10.17
2017-12-31T19:06:07.254Z,10.60
2017-12-31T19:08:34.726Z,12.53
2017-12-31T19:11:03.006Z,12.53
2017-12-31T19:13:31.233Z,14.93
2017-12-31T19:15:58.693Z,13.73
2017-12-31T19:18:26.165Z,16.63
2017-12-31T19:20:54.446Z,12.13
2017-12-31T19:23:21.918Z,13.40
2017-12-31T19:25:50.174Z,16.40
2017-12-31T19:28:17.646Z,11.80
2017-12-31T19:30:46.357Z,12.10
2017-12-31T19:33:13.894Z,12.93
2017-12-31T19:35:42.121Z,13.80
2017-12-31T19:38:09.577Z,14.67
2017-12-31T19:40:37.686Z,11.63
2017-12-31T19:43:05.145Z,12.60
2017-12-31T19:45:32.602Z,11.87
2017-12-31T19:48:00.181Z,12.03
2017-12-31T19:50:28.413Z,11.83
2017-12-31T19:52:55.948Z,14.17
2017-12-31T19:55:23.429Z,11.73
2017-12-31T19:57:50.886Z,12.00
2017-12-31T20:00:18.349Z,15.97
2017-12-31T20:02:45.821Z,12.60
2017-12-31T20:05:13.290Z,11.67
2017-12-31T20:07:41.518Z,17.03
2017-12-31T20:10:08.991Z,16.33
2017-12-31T20:12:36.449Z,13.20
2017-12-31T20:15:03.910Z,13.13
2017-12-31T20:17:31.383Z,12.83
2017-12-31T20:19:59.609Z,15.33
2017-12-31T20:22:27.082Z,12.30
2017-12-31T20:24:54.558Z,11.47
2017-12-31T20:27:22.025Z,10.73
2017-12-31T20:29:50.355Z,12.57
2017-12-31T20:32:17.822Z,12.20
2017-12-31T20:34:45.278Z,10.80
2017-12-31T20:37:12.737Z,11.90
2017-12-31T20:39:40.213Z,12.80
2017-12-31T20:42:07.670Z,11.20
2017-12-31T20:44:35.129Z,11.90
2017-12-31T20:47:02.611Z,14.07
2017-12-31T20:49:30.062Z,11.20
2017-12-31T20:51:57.522Z,11.20
2017-12-31T20:54:24.990Z,12.40
2017-12-31T20:56:53.213Z,17.63
2017-12-31T20:59:20.673Z,12.90
2017-12-31T21:01:48.671Z,16.80
2017-12-31T21:04:16.134Z,11.67
2017-12-31T21:06:43.586Z,9.97
2017-12-31T21:09:12.882Z,11.47
2017-12-31T21:11:41.105Z,11.27
2017-12-31T21:14:08.570Z,14.40
2017-12-31T21:16:36.036Z,10.63
2017-12-31T23:40:10.109Z,29.97
2017-12-31T23:43:49.603Z,37.93
